createdAt,value
2023-03-24T00:00:14.958Z,98219.50
2023-03-24T00:03:02.909Z,98224.94
2023-03-24T00:05:30.809Z,98224.31
2023-03-24T00:08:02.164Z,98221.19
2023-03-24T00:10:34.917Z,98224.78
2023-03-24T00:13:02.815Z,98214.75
2023-03-24T00:15:30.298Z,98224.66
2023-03-24T00:17:58.570Z,98230.94
2023-03-24T00:20:26.489Z,98224.66
2023-03-24T00:22:58.810Z,98221.25
2023-03-24T00:25:36.605Z,98219.78
2023-03-24T00:28:05.943Z,98224.50
2023-03-24T00:30:33.782Z,98218.66
2023-03-24T00:33:02.151Z,98211.19
2023-03-24T00:35:29.192Z,98220.44
2023-03-24T00:37:56.371Z,98212.47
2023-03-24T00:40:23.612Z,98216.13
2023-03-24T00:42:51.203Z,98210.41
2023-03-24T00:45:23.381Z,98210.63
2023-03-24T00:47:54.651Z,98209.16
2023-03-24T00:50:27.160Z,98203.13
2023-03-24T00:52:56.126Z,98206.22
2023-03-24T00:55:23.345Z,98205.72
2023-03-24T00:57:51.122Z,98205.09
2023-03-24T01:00:21.614Z,98207.34
2023-03-24T01:02:53.980Z,98203.56
2023-03-24T01:05:28.084Z,98203.81
2023-03-24T01:08:03.160Z,98203.91
2023-03-24T01:10:42.652Z,98208.47
2023-03-24T01:13:10.464Z,98205.47
2023-03-24T01:15:38.474Z,98204.53
2023-03-24T01:18:06.558Z,98208.88
2023-03-24T01:20:33.681Z,98206.31
2023-03-24T01:23:02.790Z,98204.19
2023-03-24T01:25:30.611Z,98202.16
2023-03-24T01:27:58.415Z,98197.72
2023-03-24T01:30:27.766Z,98195.28
2023-03-24T01:32:55.932Z,98199.34
2023-03-24T01:35:27.717Z,98194.13
2023-03-24T01:37:56.875Z,98204.97
2023-03-24T01:40:30.482Z,98200.34
2023-03-24T01:42:58.953Z,98199.81
2023-03-24T01:45:51.070Z,98201.41
2023-03-24T01:48:26.923Z,98199.19
2023-03-24T01:51:04.620Z,98198.44
2023-03-24T01:53:34.444Z,98197.09
2023-03-24T01:56:03.213Z,98198.38
2023-03-24T01:58:34.471Z,98199.00
2023-03-24T02:01:01.574Z,98206.22
2023-03-24T02:03:34.158Z,98209.94
2023-03-24T02:06:02.692Z,98208.34
2023-03-24T02:08:52.438Z,98210.59
2023-03-24T02:11:21.305Z,98213.34
2023-03-24T02:13:48.573Z,98212.16
2023-03-24T02:16:39.278Z,98212.47
2023-03-24T02:19:38.394Z,98214.50
2023-03-24T02:22:46.912Z,98210.59
2023-03-24T02:25:32.882Z,98206.25
2023-03-24T02:28:18.399Z,98208.22
2023-03-24T02:30:57.751Z,98214.28
2023-03-24T02:33:59.891Z,98203.06
2023-03-24T02:36:55.528Z,98208.56
2023-03-24T02:39:40.690Z,98204.31
2023-03-24T02:42:22.970Z,98209.63
2023-03-24T02:45:01.800Z,98204.53
2023-03-24T02:47:34.396Z,98207.28
2023-03-24T02:50:27.330Z,98202.94
2023-03-24T02:53:19.358Z,98209.84
2023-03-24T02:56:18.297Z,98207.19
2023-03-24T02:59:44.041Z,98210.06
2023-03-24T03:02:19.981Z,98205.59
2023-03-24T03:04:54.113Z,98206.00
2023-03-24T03:07:27.468Z,98200.06
2023-03-24T03:10:25.662Z,98208.44
2023-03-24T03:12:57.036Z,98196.25
2023-03-24T03:15:30.673Z,98199.94
2023-03-24T03:18:09.339Z,98205.22
2023-03-24T03:20:50.698Z,98201.75
2023-03-24T03:23:23.596Z,98197.19
2023-03-24T03:25:56.168Z,98203.25
2023-03-24T03:28:29.981Z,98206.41
2023-03-24T03:31:01.827Z,98200.94
2023-03-24T03:33:46.787Z,98199.03
2023-03-24T03:36:36.277Z,98201.47
2023-03-24T03:39:12.020Z,98201.25
2023-03-24T03:41:40.471Z,98202.00
2023-03-24T03:44:07.582Z,98202.81
2023-03-24T03:46:36.466Z,98205.38
2023-03-24T03:49:06.565Z,98209.84
2023-03-24T03:51:34.971Z,98206.34
2023-03-24T03:54:05.697Z,98201.16
2023-03-24T03:56:36.006Z,98209.19
2023-03-24T03:59:04.283Z,98205.78
2023-03-24T04:01:37.380Z,98198.06
2023-03-24T04:04:20.392Z,98198.38
2023-03-24T04:06:59.840Z,98192.56
2023-03-24T04:09:45.918Z,98192.88
2023-03-24T04:12:28.907Z,98196.00
2023-03-24T04:15:26.008Z,98190.28
2023-03-24T04:18:15.804Z,98189.84
2023-03-24T04:21:10.310Z,98187.69
2023-03-24T04:23:50.592Z,98184.50
2023-03-24T04:26:54.798Z,98173.66
2023-03-24T04:29:31.626Z,98179.47
2023-03-24T04:31:59.247Z,98172.78
2023-03-24T04:34:36.217Z,98173.28
2023-03-24T04:37:12.675Z,98178.13
2023-03-24T04:39:45.631Z,98186.22
2023-03-24T04:42:37.934Z,98181.38
2023-03-24T04:45:07.723Z,98184.00
2023-03-24T04:47:43.260Z,98185.91
2023-03-24T04:50:11.827Z,98188.53
2023-03-24T04:52:41.387Z,98181.38
2023-03-24T04:55:43.857Z,98183.03
2023-03-24T04:58:11.010Z,98186.34
2023-03-24T05:00:38.235Z,98183.50
2023-03-24T05:03:05.590Z,98190.09
2023-03-24T05:05:33.139Z,98182.72
2023-03-24T05:08:00.332Z,98184.00
2023-03-24T05:10:27.521Z,98178.78
2023-03-24T05:12:54.416Z,98188.53
2023-03-24T05:15:21.776Z,98184.38
2023-03-24T05:17:48.926Z,98191.56
2023-03-24T05:20:16.568Z,98193.50
2023-03-24T05:22:43.491Z,98188.53
2023-03-24T05:25:10.989Z,98189.50
2023-03-24T05:27:38.301Z,98184.63
2023-03-24T05:30:06.746Z,98179.66
2023-03-24T05:32:33.668Z,98184.53
2023-03-24T05:35:01.252Z,98188.56
2023-03-24T05:37:28.241Z,98185.56
2023-03-24T05:39:56.083Z,98179.13
2023-03-24T05:42:23.216Z,98182.41
2023-03-24T05:44:50.495Z,98178.56
2023-03-24T05:47:20.065Z,98179.84
2023-03-24T05:49:47.346Z,98172.50
2023-03-24T05:52:16.444Z,98180.97
2023-03-24T05:54:43.728Z,98186.81
2023-03-24T05:57:16.219Z,98187.09
2023-03-24T05:59:43.443Z,98178.63
2023-03-24T06:02:10.723Z,98186.13
2023-03-24T06:04:38.320Z,98178.78
2023-03-24T06:07:05.352Z,98182.53
2023-03-24T06:09:37.595Z,98181.94
2023-03-24T06:12:06.297Z,98185.97
2023-03-24T06:14:33.968Z,98188.88
2023-03-24T06:17:01.114Z,98193.00
2023-03-24T06:19:30.942Z,98193.66
2023-03-24T06:22:02.815Z,98196.81
2023-03-24T06:24:30.715Z,98195.50
2023-03-24T06:27:02.398Z,98194.53
2023-03-24T06:29:31.246Z,98199.63
2023-03-24T06:31:58.171Z,98197.81
2023-03-24T06:34:25.504Z,98201.81
2023-03-24T06:36:53.026Z,98190.13
2023-03-24T06:39:20.277Z,98197.88
2023-03-24T06:41:47.565Z,98194.63
2023-03-24T06:44:14.740Z,98192.38
2023-03-24T06:46:42.075Z,98194.56
2023-03-24T06:49:09.324Z,98196.72
2023-03-24T06:51:36.365Z,98203.50
2023-03-24T06:54:03.801Z,98208.38
2023-03-24T06:56:30.838Z,98205.47
2023-03-24T06:58:58.039Z,98204.41
2023-03-24T07:01:25.045Z,98209.22
2023-03-24T07:03:52.349Z,98212.63
2023-03-24T07:06:20.767Z,98211.88
2023-03-24T07:08:47.963Z,98212.75
2023-03-24T07:11:15.587Z,98224.94
2023-03-24T07:13:42.784Z,98207.81
2023-03-24T07:16:09.754Z,98213.50
2023-03-24T07:18:37.122Z,98220.53
2023-03-24T07:21:04.255Z,98222.94
2023-03-24T07:23:32.693Z,98223.81
2023-03-24T07:26:00.046Z,98217.53
2023-03-24T07:28:27.324Z,98212.69
2023-03-24T07:30:55.448Z,98215.72
2023-03-24T07:33:25.040Z,98220.22
2023-03-24T07:35:57.281Z,98217.81
2023-03-24T07:38:25.999Z,98221.31
2023-03-24T07:40:53.118Z,98210.78
2023-03-24T07:43:20.425Z,98210.19
2023-03-24T07:45:47.634Z,98215.13
2023-03-24T07:48:15.531Z,98217.44
2023-03-24T07:50:42.841Z,98212.34
2023-03-24T07:53:10.066Z,98214.13
2023-03-24T07:55:40.130Z,98202.50
2023-03-24T07:58:07.629Z,98201.00
2023-03-24T08:00:34.671Z,98202.22
2023-03-24T08:03:02.168Z,98197.31
2023-03-24T08:05:30.797Z,98197.41
2023-03-24T08:07:58.618Z,98196.78
2023-03-24T08:10:28.569Z,98200.41
2023-03-24T08:12:56.889Z,98199.59
2023-03-24T08:15:24.612Z,98201.38
2023-03-24T08:17:52.000Z,98196.44
2023-03-24T08:20:21.409Z,98199.81
2023-03-24T08:22:50.066Z,98194.81
2023-03-24T08:25:19.033Z,98191.66
2023-03-24T08:27:47.302Z,98195.88
2023-03-24T08:30:26.497Z,98195.38
2023-03-24T08:32:59.515Z,98199.06
2023-03-24T08:35:29.524Z,98198.41
2023-03-24T08:37:56.873Z,98198.09
2023-03-24T08:40:24.457Z,98205.63
2023-03-24T08:42:54.983Z,98195.47
2023-03-24T08:45:24.527Z,98196.38
2023-03-24T08:47:52.646Z,98199.88
2023-03-24T08:50:23.923Z,98194.53
2023-03-24T08:52:51.182Z,98200.06
2023-03-24T08:55:19.782Z,98194.88
2023-03-24T08:57:47.833Z,98203.66
2023-03-24T09:00:16.712Z,98201.88
2023-03-24T09:02:54.029Z,98191.09
2023-03-24T09:05:36.546Z,98194.59
2023-03-24T09:08:08.536Z,98196.69
2023-03-24T09:10:35.781Z,98189.59
2023-03-24T09:13:04.487Z,98196.78
2023-03-24T09:15:31.783Z,98186.13
2023-03-24T09:17:59.250Z,98182.91
2023-03-24T09:20:26.506Z,98186.63
2023-03-24T09:22:53.707Z,98196.91
2023-03-24T09:25:21.604Z,98192.25
2023-03-24T09:27:49.136Z,98192.66
2023-03-24T09:30:17.715Z,98185.44
2023-03-24T09:32:46.228Z,98192.06
2023-03-24T09:35:13.747Z,98172.56
2023-03-24T09:37:43.031Z,98184.09
2023-03-24T09:40:20.577Z,98179.16
2023-03-24T09:43:11.135Z,98188.88
2023-03-24T09:46:02.216Z,98188.59
2023-03-24T09:48:39.506Z,98174.78
2023-03-24T09:51:21.804Z,98176.50
2023-03-24T09:53:54.817Z,98171.56
2023-03-24T09:56:23.652Z,98187.31
2023-03-24T09:58:59.348Z,98161.84
2023-03-24T10:01:27.200Z,98161.31
2023-03-24T10:03:58.988Z,98164.69
2023-03-24T10:06:31.051Z,98157.50
2023-03-24T10:09:16.248Z,98150.19
2023-03-24T10:12:02.901Z,98145.66
2023-03-24T10:14:51.754Z,98149.25
2023-03-24T10:17:33.035Z,98138.38
2023-03-24T10:20:30.921Z,98130.63
2023-03-24T10:23:04.445Z,98136.91
2023-03-24T10:25:50.463Z,98140.44
2023-03-24T10:28:20.945Z,98120.69
2023-03-24T10:30:51.518Z,98117.91
2023-03-24T10:33:18.472Z,98115.78
2023-03-24T10:35:57.136Z,98118.13
2023-03-24T10:38:24.426Z,98112.56
2023-03-24T10:40:54.344Z,98122.00
2023-03-24T10:43:23.297Z,98110.34
2023-03-24T10:45:53.697Z,98094.94
2023-03-24T10:48:36.043Z,98092.88
2023-03-24T10:51:03.657Z,98102.91
2023-03-24T10:53:30.636Z,98087.38
2023-03-24T10:55:58.109Z,98085.84
2023-03-24T10:58:37.608Z,98052.25
2023-03-24T11:01:21.438Z,98069.13
2023-03-24T11:03:49.965Z,98066.91
2023-03-24T11:06:19.648Z,98069.84
2023-03-24T11:08:46.790Z,98044.97
2023-03-24T11:11:35.034Z,98045.31
2023-03-24T11:14:03.267Z,98044.72
2023-03-24T11:16:35.990Z,98050.25
2023-03-24T11:19:18.645Z,98045.78
2023-03-24T11:21:48.177Z,98033.00
2023-03-24T11:24:20.259Z,98023.31
2023-03-24T11:27:02.167Z,98021.63
2023-03-24T11:29:32.807Z,98020.59
2023-03-24T11:32:11.265Z,98023.00
2023-03-24T11:34:44.762Z,98022.53
2023-03-24T11:37:20.038Z,98006.50
2023-03-24T11:40:15.465Z,98009.63
2023-03-24T11:42:52.264Z,98005.47
2023-03-24T11:45:28.638Z,98010.28
2023-03-24T11:47:58.577Z,97998.00
2023-03-24T11:50:38.824Z,98002.13
2023-03-24T11:53:21.470Z,98001.78
2023-03-24T11:55:59.659Z,97993.81
2023-03-24T11:58:50.465Z,97994.66
2023-03-24T12:01:25.626Z,97998.13
2023-03-24T12:04:23.216Z,98000.47
2023-03-24T12:07:07.622Z,97988.78
2023-03-24T12:09:53.386Z,97970.91
2023-03-24T12:12:36.300Z,97982.72
2023-03-24T12:15:26.652Z,97974.75
2023-03-24T12:18:16.470Z,97967.69
2023-03-24T12:21:05.182Z,97976.06
2023-03-24T12:23:59.345Z,97969.78
2023-03-24T12:26:34.613Z,97959.81
2023-03-24T12:29:15.508Z,97966.94
2023-03-24T12:32:16.567Z,97960.03
2023-03-24T12:35:17.202Z,97975.88
2023-03-24T12:38:06.155Z,97959.41
2023-03-24T12:40:56.113Z,97947.00
2023-03-24T12:44:22.038Z,97944.31
2023-03-24T12:47:03.065Z,97949.66
2023-03-24T12:50:02.322Z,97938.09
2023-03-24T12:53:23.159Z,97933.97
2023-03-24T12:55:59.421Z,97920.50
2023-03-24T12:58:58.054Z,97919.66
2023-03-24T13:01:50.298Z,97939.22
2023-03-24T13:04:32.564Z,97915.75
2023-03-24T13:07:11.588Z,97914.66
2023-03-24T13:10:06.817Z,97909.44
2023-03-24T13:12:54.186Z,97891.63
2023-03-24T13:15:27.583Z,97893.78
2023-03-24T13:18:09.823Z,97894.38
2023-03-24T13:20:46.738Z,97876.41
2023-03-24T13:23:23.152Z,97885.13
2023-03-24T13:25:56.358Z,97875.28
2023-03-24T13:28:31.329Z,97880.91
2023-03-24T13:31:02.695Z,97868.84
2023-03-24T13:33:32.376Z,97866.03
2023-03-24T13:36:17.418Z,97859.00
2023-03-24T13:38:53.146Z,97853.13
2023-03-24T13:41:29.058Z,97859.28
2023-03-24T13:44:02.366Z,97858.47
2023-03-24T13:46:29.706Z,97861.81
2023-03-24T13:48:58.750Z,97853.97
2023-03-24T13:51:33.046Z,97850.97
2023-03-24T13:54:22.617Z,97841.84
2023-03-24T13:57:00.652Z,97848.72
2023-03-24T13:59:32.144Z,97841.25
2023-03-24T14:02:17.757Z,97835.50
2023-03-24T14:04:47.659Z,97833.53
2023-03-24T14:07:32.609Z,97832.56
2023-03-24T14:10:03.175Z,97833.63
2023-03-24T14:12:32.861Z,97843.56
2023-03-24T14:15:15.073Z,97852.97
2023-03-24T14:17:53.768Z,97819.00
2023-03-24T14:20:38.568Z,97821.94
2023-03-24T14:23:05.753Z,97822.13
2023-03-24T14:25:33.963Z,97805.53
2023-03-24T14:28:21.283Z,97807.81
2023-03-24T14:31:17.706Z,97813.41
2023-03-24T14:33:54.162Z,97789.53
2023-03-24T14:36:35.254Z,97804.88
2023-03-24T14:39:14.537Z,97799.66
2023-03-24T14:41:44.351Z,97797.31
2023-03-24T14:44:11.617Z,97788.28
2023-03-24T14:46:39.865Z,97774.09
2023-03-24T14:49:29.364Z,97783.25
2023-03-24T14:52:12.913Z,97793.50
2023-03-24T14:55:02.260Z,97793.78
2023-03-24T14:57:34.473Z,97764.00
2023-03-24T15:00:22.632Z,97796.63
2023-03-24T15:02:52.718Z,97790.47
2023-03-24T15:05:31.868Z,97772.66
2023-03-24T15:08:33.145Z,97774.25
2023-03-24T15:11:04.613Z,97768.53
2023-03-24T15:13:42.702Z,97761.09
2023-03-24T15:16:12.758Z,97769.09
2023-03-24T15:21:41.244Z,97750.72
2023-03-24T15:24:23.747Z,97768.44
2023-03-24T15:26:54.689Z,97764.22
2023-03-24T15:29:22.364Z,97760.00
2023-03-24T15:31:50.441Z,97759.31
2023-03-24T15:34:40.977Z,97752.63
2023-03-24T15:37:32.536Z,97740.56
2023-03-24T15:40:14.766Z,97755.72
2023-03-24T15:42:46.078Z,97753.31
2023-03-24T15:45:28.322Z,97747.28
2023-03-24T15:47:56.244Z,97744.63
2023-03-24T15:50:41.551Z,97742.78
2023-03-24T15:53:14.377Z,97747.16
2023-03-24T15:55:43.543Z,97739.56
2023-03-24T15:58:28.569Z,97747.03
2023-03-24T16:01:00.080Z,97734.13
2023-03-24T16:03:27.830Z,97741.56
2023-03-24T16:05:56.880Z,97743.53
2023-03-24T16:08:39.320Z,97739.47
2023-03-24T16:11:11.963Z,97739.47
2023-03-24T16:13:44.970Z,97737.22
2023-03-24T16:16:15.165Z,97744.09
2023-03-24T16:18:44.975Z,97735.25
2023-03-24T16:21:17.179Z,97732.47
2023-03-24T16:23:45.478Z,97727.13
2023-03-24T16:26:14.810Z,97737.38
2023-03-24T16:28:41.818Z,97712.94
2023-03-24T16:31:35.677Z,97729.94
2023-03-24T16:34:02.588Z,97742.44
2023-03-24T16:36:30.270Z,97740.88
2023-03-24T16:38:59.446Z,97742.44
2023-03-24T16:41:26.751Z,97751.97
2023-03-24T16:43:54.178Z,97741.56
2023-03-24T16:46:31.445Z,97742.56
2023-03-24T16:48:58.892Z,97749.44
2023-03-24T16:51:27.249Z,97751.97
2023-03-24T16:53:54.115Z,97746.63
2023-03-24T16:56:22.898Z,97752.41
2023-03-24T16:58:53.295Z,97753.38
2023-03-24T17:01:35.819Z,97758.56
2023-03-24T17:04:10.371Z,97757.88
2023-03-24T17:06:39.922Z,97772.84
2023-03-24T17:09:08.289Z,97769.09
2023-03-24T17:11:48.840Z,97763.06
2023-03-24T17:14:15.940Z,97768.94
2023-03-24T17:16:45.264Z,97768.94
2023-03-24T17:19:17.411Z,97760.78
2023-03-24T17:21:50.332Z,97771.59
2023-03-24T17:24:17.789Z,97759.09
2023-03-24T17:26:44.976Z,97766.56
2023-03-24T17:29:13.659Z,97778.47
2023-03-24T17:31:43.169Z,97773.84
2023-03-24T17:36:44.658Z,97774.41
2023-03-24T17:39:16.760Z,97766.00
2023-03-24T17:41:44.377Z,97765.19
2023-03-24T17:44:11.328Z,97769.66
2023-03-24T17:46:38.700Z,97766.00
2023-03-24T17:49:05.768Z,97762.78
2023-03-24T17:51:33.219Z,97779.06
2023-03-24T17:54:00.821Z,97773.72
2023-03-24T17:56:28.013Z,97772.03
2023-03-24T17:58:56.424Z,97779.19
2023-03-24T18:01:23.847Z,97770.66
2023-03-24T18:03:50.882Z,97776.00
2023-03-24T18:06:18.246Z,97766.44
2023-03-24T18:08:45.330Z,97778.22
2023-03-24T18:11:14.851Z,97778.63
2023-03-24T18:13:42.558Z,97775.69
2023-03-24T18:16:20.842Z,97777.66
2023-03-24T18:18:49.285Z,97775.56
2023-03-24T18:21:16.533Z,97771.06
2023-03-24T18:23:44.015Z,97772.91
2023-03-24T18:26:11.286Z,97777.53
2023-03-24T18:28:39.119Z,97771.50
2023-03-24T18:31:12.848Z,97773.44
2023-03-24T18:33:42.798Z,97778.19
2023-03-24T18:36:10.630Z,97771.06
2023-03-24T18:38:37.727Z,97771.34
2023-03-24T18:41:07.471Z,97766.56
2023-03-24T18:43:37.847Z,97765.88
2023-03-24T18:46:09.498Z,97767.84
2023-03-24T18:48:41.929Z,97761.81
2023-03-24T18:51:10.304Z,97765.59
2023-03-24T18:53:37.535Z,97771.59
2023-03-24T18:56:06.081Z,97765.59
2023-03-24T18:58:33.857Z,97765.59
2023-03-24T19:01:07.066Z,97753.38
2023-03-24T19:03:35.838Z,97757.84
2023-03-24T19:06:07.044Z,97754.91
2023-03-24T19:08:38.004Z,97751.94
2023-03-24T19:11:05.731Z,97743.25
2023-03-24T19:13:33.095Z,97738.22
2023-03-24T19:16:00.460Z,97742.84
2023-03-24T19:18:27.433Z,97746.59
2023-03-24T19:20:57.359Z,97740.44
2023-03-24T19:23:25.779Z,97739.47
2023-03-24T19:25:56.263Z,97736.91
2023-03-24T19:28:25.039Z,97741.81
2023-03-24T19:30:53.425Z,97738.44
2023-03-24T19:33:20.590Z,97735.63
2023-03-24T19:35:48.779Z,97735.88
2023-03-24T19:38:17.152Z,97733.50
2023-03-24T19:40:45.068Z,97731.09
2023-03-24T19:43:12.115Z,97736.81
2023-03-24T19:45:42.973Z,97726.47
2023-03-24T19:48:10.902Z,97726.47
2023-03-24T19:50:38.370Z,97722.97
2023-03-24T19:53:05.609Z,97723.09
2023-03-24T19:55:33.620Z,97721.56
2023-03-24T19:58:00.635Z,97723.38
2023-03-24T20:00:28.343Z,97714.56
2023-03-24T20:02:55.411Z,97719.88
2023-03-24T20:05:22.718Z,97720.00
2023-03-24T20:07:49.735Z,97723.63
2023-03-24T20:10:17.136Z,97718.06
2023-03-24T20:12:44.066Z,97716.09
2023-03-24T20:15:11.627Z,97714.28
2023-03-24T20:17:40.647Z,97715.00
2023-03-24T20:20:08.732Z,97717.53
2023-03-24T20:22:36.342Z,97713.19
2023-03-24T20:25:04.958Z,97717.41
2023-03-24T20:27:32.170Z,97713.75
2023-03-24T20:29:59.399Z,97719.91
2023-03-24T20:32:26.357Z,97715.59
2023-03-24T20:34:54.420Z,97713.75
2023-03-24T20:37:21.318Z,97719.38
2023-03-24T20:39:48.561Z,97714.88
2023-03-24T20:42:17.546Z,97718.25
2023-03-24T20:44:44.537Z,97713.88
2023-03-24T20:47:11.557Z,97710.56
2023-03-24T20:49:38.688Z,97709.72
2023-03-24T20:52:05.706Z,97708.16
2023-03-24T20:54:32.890Z,97712.22
2023-03-24T20:56:59.787Z,97713.78
2023-03-24T20:59:27.044Z,97703.84
2023-03-24T21:01:53.954Z,97711.41
2023-03-24T21:04:21.225Z,97705.25
2023-03-24T21:06:48.072Z,97705.94
2023-03-24T21:09:15.520Z,97707.91
2023-03-24T21:11:42.424Z,97703.28
2023-03-24T21:14:09.627Z,97696.69
2023-03-24T21:16:37.516Z,97699.50
2023-03-24T21:19:05.105Z,97709.44
2023-03-24T21:21:32.411Z,97704.66
2023-03-24T21:24:00.577Z,97700.47
2023-03-24T21:26:27.980Z,97706.06
2023-03-24T21:28:57.967Z,97701.00
2023-03-24T21:31:27.526Z,97701.28
2023-03-24T21:33:56.507Z,97709.53
2023-03-24T21:36:25.045Z,97710.78
2023-03-24T21:38:54.055Z,97710.91
2023-03-24T21:41:22.377Z,97698.59
2023-03-24T21:43:54.336Z,97702.94
2023-03-24T21:46:22.353Z,97698.31
2023-03-24T21:48:51.943Z,97707.41
2023-03-24T21:51:20.226Z,97700.25
2023-03-24T21:53:47.881Z,97702.91
2023-03-24T21:56:14.842Z,97698.84
2023-03-24T21:58:42.281Z,97700.78
2023-03-24T22:01:09.814Z,97707.22
2023-03-24T22:03:37.317Z,97708.34
2023-03-24T22:06:06.094Z,97711.41
2023-03-24T22:08:33.292Z,97714.47
2023-03-24T22:11:04.178Z,97707.84
2023-03-24T22:13:33.471Z,97706.69
2023-03-24T22:16:03.103Z,97715.06
2023-03-24T22:18:33.036Z,97713.91
2023-03-24T22:21:08.384Z,97706.69
2023-03-24T22:23:39.706Z,97706.38
2023-03-24T22:26:10.468Z,97709.59
2023-03-24T22:28:38.358Z,97707.13
2023-03-24T22:31:11.572Z,97719.03
2023-03-24T22:33:38.877Z,97717.59
2023-03-24T22:36:06.886Z,97711.56
2023-03-24T22:38:34.620Z,97715.88
2023-03-24T22:41:07.338Z,97708.19
2023-03-24T22:43:35.749Z,97714.22
2023-03-24T22:46:03.635Z,97713.22
2023-03-24T22:48:31.428Z,97717.97
2023-03-24T22:50:58.305Z,97718.94
2023-03-24T22:53:25.660Z,97713.38
2023-03-24T22:55:53.050Z,97717.25
2023-03-24T22:58:20.539Z,97718.22
2023-03-24T23:00:50.071Z,97716.78
2023-03-24T23:03:17.451Z,97707.94
2023-03-24T23:05:46.176Z,97711.69
2023-03-24T23:08:15.577Z,97699.03
2023-03-24T23:10:44.847Z,97696.91
2023-03-24T23:13:13.378Z,97693.19
2023-03-24T23:15:42.790Z,97692.16
2023-03-24T23:18:10.876Z,97687.72
2023-03-24T23:20:38.026Z,97685.34
2023-03-24T23:23:06.827Z,97687.38
2023-03-24T23:25:40.390Z,97686.31
2023-03-24T23:28:07.252Z,97690.31
2023-03-24T23:30:34.469Z,97692.50
2023-03-24T23:33:03.634Z,97686.59
2023-03-24T23:35:33.310Z,97687.09
2023-03-24T23:38:00.112Z,97681.81
2023-03-24T23:40:28.452Z,97682.25
2023-03-24T23:42:55.334Z,97679.41
2023-03-24T23:45:22.760Z,97678.06
2023-03-24T23:47:51.879Z,97676.50
2023-03-24T23:50:20.621Z,97667.13
2023-03-24T23:52:48.061Z,97668.09
2023-03-24T23:55:17.974Z,97668.47
2023-03-24T23:57:46.885Z,97672.06
